Sunday, November 19, 2017, 11:14 PM EST
Back to Local

KLEW, Auburn-lewiston

Location: Auburn, ME, United States Lat: 44.05
Local Time: 11:14 PM EST ( 4:14 GMT) Lon: -70.283
Time Zone: US/Eastern Elev: 288 ft

Show me the last for .
Show Decoded

2017-11-19 22:56 METAR KLEW 200356Z AUTO 00000KT 10SM FEW047 M03/M05 A2954 RMK AO2 SLP019
                 T10281050 401391028 FZRANO =
2017-11-19 21:56 METAR KLEW 200256Z AUTO 00000KT 10SM SCT038 BKN047 M01/M06 A2952 RMK AO2 SLP012
                 T10061056 53038 FZRANO =
2017-11-19 20:56 METAR KLEW 200156Z AUTO 28006KT 10SM SCT046 00/M06 A2949 RMK AO2 SLP002
                 T00001061 FZRANO =
2017-11-19 19:56 METAR KLEW 200056Z AUTO 32013KT 10SM FEW042 00/M07 A2943 RMK AO2 SLP982
                 T00001067 FZRANO =
2017-11-19 18:56 METAR KLEW 192356Z AUTO 30011G21KT 10SM CLR 01/M06 A2941 RMK AO2 PRESRR SLP975
                 T00111056 10122 20011 51064 FZRANO =
2017-11-19 17:56 METAR KLEW 192256Z AUTO 30013G18KT 10SM SCT041 02/M05 A2935 RMK AO2 SLP955
                 T00171050 FZRANO =
2017-11-19 16:56 METAR KLEW 192156Z AUTO 31010G16KT 10SM FEW043 03/M04 A2931 RMK AO2 PRESRR
                 SLP941 T00281039 =
2017-11-19 15:56 METAR KLEW 192056Z AUTO 31012G17KT 10SM FEW035 04/M02 A2922 RMK AO2 SLP911
                 T00391017 53064 =
2017-11-19 14:56 METAR KLEW 191956Z AUTO 31014G23KT 10SM BKN043 OVC065 06/00 A2915 RMK AO2 PK WND
                 31026/1936 SLP888 T00560000 =
2017-11-19 14:11 METAR KLEW 191911Z AUTO 30014G20KT 10SM SCT016 SCT039 OVC049 07/02 A2911 RMK AO2
                 =
2017-11-19 13:56 METAR KLEW 191856Z AUTO 28013G19KT 260V330 10SM BKN016 OVC039 08/05 A2909 RMK
                 AO2 PK WND 30028/1838 PRESRR SLP866 T00830050 =
2017-11-19 13:39 METAR KLEW 191839Z AUTO 31020G28KT 10SM BKN015 OVC060 09/07 A2906 RMK AO2 PK WND
                 30028/1838 =
2017-11-19 12:56 METAR KLEW 191756Z AUTO 25010G21KT 10SM SCT015 SCT050 BKN065 12/09 A2903 RMK AO2
                 RAE16B34E52 SLP846 P0000 60009 T01220094 10139 20033 55020 =
2017-11-19 12:29 METAR KLEW 191729Z AUTO 20009KT 10SM OVC011 14/13 A2901 RMK AO2 RAE16 P0000 =
2017-11-19 11:56 METAR KLEW 191656Z AUTO 19011KT 10SM -RA OVC009 13/13 A2901 RMK AO2 RAB1557 CIG
                 006V012 SLP840 P0001 T01330128 =
2017-11-19 10:56 METAR KLEW 191556Z AUTO 19004KT 7SM OVC007 09/09 A2905 RMK AO2 RAE54 CIG 007V011
                 SLP853 P0001 T00890089 =
2017-11-19 10:19 METAR KLEW 191519Z AUTO 36003KT 7SM FEW002 OVC007 05/05 A2907 RMK AO2 RAE12
                 P0001 =
2017-11-19 09:56 METAR KLEW 191456Z AUTO 00000KT 5SM -RA BR OVC002 05/04 A2909 RMK AO2 SLP866
                 P0001 60007 T00500044 58029 =
2017-11-19 08:56 METAR KLEW 191356Z AUTO 00000KT 10SM -RA OVC002 04/04 A2912 RMK AO2 SLP876 P0003
                 T00390039 =
2017-11-19 07:56 METAR KLEW 191256Z AUTO 35004KT 6SM -RA BR OVC002 03/03 A2917 RMK AO2 SLP893
                 P0003 T00330033 =
2017-11-19 07:20 METAR KLEW 191220Z AUTO 33004KT 3SM -RA BR OVC002 03/03 A2918 RMK AO2 P0002 =
2017-11-19 07:10 METAR KLEW 191210Z AUTO 00000KT 1 1/4SM -RA BR OVC002 03/03 A2918 RMK AO2 P0001
                 =
2017-11-19 06:56 METAR KLEW 191156Z AUTO 00000KT 3/4SM -RA BR OVC004 03/03 A2917 RMK AO2 CIG
                 002V006 SLP894 P0001 60026 70047 T00330033 10033 20017 58042 =
2017-11-19 06:47 METAR KLEW 191147Z AUTO 00000KT 3/4SM -RA BR OVC004 03/03 A2917 RMK AO2 CIG
                 003V006 PRESFR P0001 =
2017-11-19 06:16 METAR KLEW 191116Z AUTO 35004KT 3/4SM -RA BR OVC002 03/03 A2921 RMK AO2 P0000 =
2017-11-19 06:08 METAR KLEW 191108Z AUTO 35003KT 1 1/4SM -RA BR OVC002 03/03 A2922 RMK AO2 P0000
                 =
2017-11-19 05:56 METAR KLEW 191056Z AUTO 33004KT 2 1/2SM -RA BR OVC002 03/03 A2922 RMK AO2 VIS
                 2V4 UPB39E46 SLP910 P0003 T00280028 =
2017-11-19 05:17 METAR KLEW 191017Z AUTO 00000KT 3SM -RA BR OVC002 03/03 A2924 RMK AO2 P0002 =
2017-11-19 04:56 METAR KLEW 190956Z AUTO 00000KT 2 1/2SM -RA BR OVC002 03/02 A2926 RMK AO2 SLP925
                 P0007 T00280022 =
2017-11-19 04:17 METAR KLEW 190917Z AUTO 00000KT 2 1/2SM -RA BR OVC002 02/02 A2928 RMK AO2 P0002
                 FZRANO =
2017-11-19 03:56 METAR KLEW 190856Z AUTO 01003KT 4SM -RA BR OVC002 02/02 A2930 RMK AO2 PRESFR
                 SLP937 P0003 60015 T00220022 58051 FZRANO =
2017-11-19 02:56 METAR KLEW 190756Z AUTO 01004KT 5SM -RA BR OVC002 02/02 A2936 RMK AO2 SLP956
                 P0010 T00220017 FZRANO =
2017-11-19 01:56 METAR KLEW 190656Z AUTO 01004KT 4SM -RA BR OVC002 02/02 A2941 RMK AO2 SLP976
                 P0002 T00170017 FZRANO =
2017-11-19 01:06 METAR KLEW 190606Z AUTO 00000KT 3SM -RA BR OVC002 02/02 A2944 RMK AO2 P0001
                 FZRANO =
2017-11-19 00:56 METAR KLEW 190556Z AUTO 00000KT 3SM -RA BR OVC004 02/02 A2945 RMK AO2 SLP989
                 P0005 60021 T00170017 10022 20011 58031 FZRANO =
2017-11-19 00:49 METAR KLEW 190549Z AUTO 00000KT 2 1/2SM -RA BR OVC004 02/02 A2946 RMK AO2 P0004
                 FZRANO =
2017-11-19 00:32 METAR KLEW 190532Z AUTO 04004KT 3SM -RA BR OVC004 02/02 A2946 RMK AO2 P0003
                 FZRANO =
2017-11-19 00:21 METAR KLEW 190521Z AUTO 36003KT 2 1/2SM -RA BR OVC004 02/02 A2948 RMK AO2 P0002
                 FZRANO =
2017-11-18 23:56 METAR KLEW 190456Z AUTO 36004KT 4SM -RA BR OVC004 02/01 A2949 RMK AO2 SLP003
                 P0004 T00170011 FZRANO =

Support USWX by starting your Amazon purchase here.